Главная страница
METAR-TAF:

METAR-TAF

Аэропорты :

Элиста, Россия

широта: 46-22N, долгота: 044-20E, высота над уровнем моря: 150 м

Текущие метеонаблюдения

Эта сводка был подготовлена 35 минут назад, в 16:30 UTC
Ветер 8 Узел от восточно-юго-восточный
Температура 27°C
Влажность 42%
Давление 1013 hPa
Видимость 10 км и более

METAR: URWI 191630Z AUTO 12004MPS 9999 // NCD 27/13 Q1013

Время: 20:05 (17:05 UTC)

Прогноз

Эта сводка был подготовлена 6 часа и 5 минут назад, в 11:00 UTC
Прогноз действительный с 19-го 12 UTC до 19-го 21 UTC
Ветер 10 Узел от восточно-юго-восточный с порывами до 19 Узел
Видимость 10 км и более
Отдельные облака на высоте 3000 фута
временами
С 19-го 12 UTC до 19-го 18 UTC
Ветер 14 Узел от юго-восточный с порывами до 27 Узел

TAF: URWI 191100Z 1912/1921 12005G10MPS 9999 SCT030 TEMPO 1912/1918 14007G14MPS

Метеонаблюдения и прогнозы для более 4000 аэропортов (сводки METAR и TAF).

Имеющиеся станции представлены на карте желтыми и красными точками.

Чтобы увидеть название станции, наведите на нее мышь.

Затем щелкните, чтобы увидеть метеонаблюдения и метеопрогнозы.

Управление картой: чтобы увеличить масштаб, щелкните зеленые кнопки с черным крестиком; чтобы уменьшить масштаб, щелкните зеленую кнопку с тире; для просмотра соседних карт щелкайте зеленые стрелки.


METAR-TAF: